sensor_id;sensor_type;location;lat;lon;timestamp;temperature;humidity
7002;DHT22;3541;53.230;10.518;2023-03-01T00:00:16;1.40;99.90
7002;DHT22;3541;53.230;10.518;2023-03-01T00:02:43;1.40;99.90
7002;DHT22;3541;53.230;10.518;2023-03-01T00:05:10;1.40;99.90
7002;DHT22;3541;53.230;10.518;2023-03-01T00:07:37;1.40;99.90
7002;DHT22;3541;53.230;10.518;2023-03-01T00:10:05;1.40;99.90
7002;DHT22;3541;53.230;10.518;2023-03-01T00:12:31;1.40;99.90
7002;DHT22;3541;53.230;10.518;2023-03-01T00:14:58;1.30;99.90
7002;DHT22;3541;53.230;10.518;2023-03-01T00:17:24;1.40;99.90
7002;DHT22;3541;53.230;10.518;2023-03-01T00:19:51;1.30;99.90
7002;DHT22;3541;53.230;10.518;2023-03-01T00:22:17;1.30;99.90
7002;DHT22;3541;53.230;10.518;2023-03-01T00:24:45;1.10;99.90
7002;DHT22;3541;53.230;10.518;2023-03-01T00:27:12;1.20;99.90
7002;DHT22;3541;53.230;10.518;2023-03-01T00:29:38;1.20;99.90
7002;DHT22;3541;53.230;10.518;2023-03-01T00:32:05;1.10;99.90
7002;DHT22;3541;53.230;10.518;2023-03-01T00:34:31;1.20;99.90
7002;DHT22;3541;53.230;10.518;2023-03-01T00:36:58;1.20;99.90
7002;DHT22;3541;53.230;10.518;2023-03-01T00:39:30;1.20;99.90
7002;DHT22;3541;53.230;10.518;2023-03-01T00:41:59;1.20;99.90
7002;DHT22;3541;53.230;10.518;2023-03-01T00:44:25;1.20;99.90
7002;DHT22;3541;53.230;10.518;2023-03-01T00:46:53;1.20;99.90
7002;DHT22;3541;53.230;10.518;2023-03-01T00:49:20;1.10;99.90
7002;DHT22;3541;53.230;10.518;2023-03-01T00:51:46;1.10;99.90
7002;DHT22;3541;53.230;10.518;2023-03-01T00:54:13;1.10;99.90
7002;DHT22;3541;53.230;10.518;2023-03-01T00:56:39;1.10;99.90
7002;DHT22;3541;53.230;10.518;2023-03-01T00:59:07;1.10;99.90
7002;DHT22;3541;53.230;10.518;2023-03-01T01:01:34;0.90;99.90
7002;DHT22;3541;53.230;10.518;2023-03-01T01:04:01;1.00;99.90
7002;DHT22;3541;53.230;10.518;2023-03-01T01:06:31;1.00;99.90
7002;DHT22;3541;53.230;10.518;2023-03-01T01:08:59;1.10;99.90
7002;DHT22;3541;53.230;10.518;2023-03-01T01:11:28;1.10;99.90
7002;DHT22;3541;53.230;10.518;2023-03-01T01:13:56;1.00;99.90
7002;DHT22;3541;53.230;10.518;2023-03-01T01:16:26;1.00;99.90
7002;DHT22;3541;53.230;10.518;2023-03-01T01:18:52;1.00;99.90
7002;DHT22;3541;53.230;10.518;2023-03-01T01:21:22;0.90;99.90
7002;DHT22;3541;53.230;10.518;2023-03-01T01:23:49;1.00;99.90
7002;DHT22;3541;53.230;10.518;2023-03-01T01:26:18;1.00;99.90
7002;DHT22;3541;53.230;10.518;2023-03-01T01:28:45;0.90;99.90
7002;DHT22;3541;53.230;10.518;2023-03-01T01:31:12;0.90;99.90
7002;DHT22;3541;53.230;10.518;2023-03-01T01:33:40;0.80;99.90
7002;DHT22;3541;53.230;10.518;2023-03-01T01:36:07;0.80;99.90
7002;DHT22;3541;53.230;10.518;2023-03-01T01:38:34;0.80;99.90
7002;DHT22;3541;53.230;10.518;2023-03-01T01:41:01;0.80;99.90
7002;DHT22;3541;53.230;10.518;2023-03-01T01:43:30;0.80;99.90
7002;DHT22;3541;53.230;10.518;2023-03-01T01:45:59;0.80;99.90
7002;DHT22;3541;53.230;10.518;2023-03-01T01:48:31;0.70;99.90
7002;DHT22;3541;53.230;10.518;2023-03-01T01:51:08;0.80;99.90
7002;DHT22;3541;53.230;10.518;2023-03-01T01:53:36;0.80;99.90
7002;DHT22;3541;53.230;10.518;2023-03-01T01:56:06;0.70;99.90
7002;DHT22;3541;53.230;10.518;2023-03-01T01:58:34;0.70;99.90
7002;DHT22;3541;53.230;10.518;2023-03-01T02:01:00;0.60;99.90
7002;DHT22;3541;53.230;10.518;2023-03-01T02:03:31;0.50;99.90
7002;DHT22;3541;53.230;10.518;2023-03-01T02:06:05;0.50;99.90
7002;DHT22;3541;53.230;10.518;2023-03-01T02:08:37;0.60;99.90
7002;DHT22;3541;53.230;10.518;2023-03-01T02:11:05;0.60;99.90
7002;DHT22;3541;53.230;10.518;2023-03-01T02:13:33;0.50;99.90
7002;DHT22;3541;53.230;10.518;2023-03-01T02:16:03;0.40;99.90
7002;DHT22;3541;53.230;10.518;2023-03-01T02:18:29;0.50;99.90
7002;DHT22;3541;53.230;10.518;2023-03-01T02:21:05;0.50;99.90
7002;DHT22;3541;53.230;10.518;2023-03-01T02:23:36;0.50;99.90
7002;DHT22;3541;53.230;10.518;2023-03-01T02:26:07;0.50;99.90
7002;DHT22;3541;53.230;10.518;2023-03-01T02:28:39;0.40;99.90
7002;DHT22;3541;53.230;10.518;2023-03-01T02:31:08;0.40;99.90
7002;DHT22;3541;53.230;10.518;2023-03-01T02:33:53;0.50;99.90
7002;DHT22;3541;53.230;10.518;2023-03-01T02:36:22;0.40;99.90
7002;DHT22;3541;53.230;10.518;2023-03-01T02:38:52;0.50;99.90
7002;DHT22;3541;53.230;10.518;2023-03-01T02:41:20;0.40;99.90
7002;DHT22;3541;53.230;10.518;2023-03-01T02:43:49;0.30;99.90
7002;DHT22;3541;53.230;10.518;2023-03-01T02:46:17;0.30;99.90
7002;DHT22;3541;53.230;10.518;2023-03-01T02:48:46;0.30;99.90
7002;DHT22;3541;53.230;10.518;2023-03-01T02:51:25;0.30;99.90
7002;DHT22;3541;53.230;10.518;2023-03-01T02:53:59;0.30;99.90
7002;DHT22;3541;53.230;10.518;2023-03-01T02:56:30;0.30;99.90
7002;DHT22;3541;53.230;10.518;2023-03-01T02:58:59;0.20;99.90
7002;DHT22;3541;53.230;10.518;2023-03-01T03:01:27;0.20;99.90
7002;DHT22;3541;53.230;10.518;2023-03-01T03:04:02;0.00;99.90
7002;DHT22;3541;53.230;10.518;2023-03-01T03:06:28;0.10;99.90
7002;DHT22;3541;53.230;10.518;2023-03-01T03:08:55;0.20;99.90
7002;DHT22;3541;53.230;10.518;2023-03-01T03:11:22;0.10;99.90
7002;DHT22;3541;53.230;10.518;2023-03-01T03:13:48;0.00;99.90
7002;DHT22;3541;53.230;10.518;2023-03-01T03:16:16;0.10;99.90
7002;DHT22;3541;53.230;10.518;2023-03-01T03:18:43;0.20;99.90
7002;DHT22;3541;53.230;10.518;2023-03-01T03:21:11;0.10;99.90
7002;DHT22;3541;53.230;10.518;2023-03-01T03:23:38;0.10;99.90
7002;DHT22;3541;53.230;10.518;2023-03-01T03:26:05;0.10;99.90
7002;DHT22;3541;53.230;10.518;2023-03-01T03:28:33;0.10;99.90
7002;DHT22;3541;53.230;10.518;2023-03-01T03:31:00;0.10;99.90
7002;DHT22;3541;53.230;10.518;2023-03-01T03:33:30;0.10;99.90
7002;DHT22;3541;53.230;10.518;2023-03-01T03:35:56;0.10;99.90
7002;DHT22;3541;53.230;10.518;2023-03-01T03:38:23;0.10;99.90
7002;DHT22;3541;53.230;10.518;2023-03-01T03:40:51;0.10;99.90
7002;DHT22;3541;53.230;10.518;2023-03-01T03:43:20;0.10;99.90
7002;DHT22;3541;53.230;10.518;2023-03-01T03:45:48;0.20;99.90
7002;DHT22;3541;53.230;10.518;2023-03-01T03:48:15;0.10;99.90
7002;DHT22;3541;53.230;10.518;2023-03-01T03:50:48;0.00;99.90
7002;DHT22;3541;53.230;10.518;2023-03-01T03:53:15;0.00;99.90
7002;DHT22;3541;53.230;10.518;2023-03-01T03:55:41;0.00;99.90
7002;DHT22;3541;53.230;10.518;2023-03-01T03:58:10;0.10;99.90
7002;DHT22;3541;53.230;10.518;2023-03-01T04:00:39;0.10;99.90
7002;DHT22;3541;53.230;10.518;2023-03-01T04:03:06;0.00;99.90
7002;DHT22;3541;53.230;10.518;2023-03-01T04:05:33;0.00;99.90
7002;DHT22;3541;53.230;10.518;2023-03-01T04:08:01;0.00;99.90
7002;DHT22;3541;53.230;10.518;2023-03-01T04:10:30;-0.10;99.90
7002;DHT22;3541;53.230;10.518;2023-03-01T04:12:56;0.00;99.90
7002;DHT22;3541;53.230;10.518;2023-03-01T04:15:24;0.00;99.90
7002;DHT22;3541;53.230;10.518;2023-03-01T04:17:52;0.00;99.90
7002;DHT22;3541;53.230;10.518;2023-03-01T04:20:20;0.00;99.90
7002;DHT22;3541;53.230;10.518;2023-03-01T04:22:50;0.00;99.90
7002;DHT22;3541;53.230;10.518;2023-03-01T04:25:19;0.00;99.90
7002;DHT22;3541;53.230;10.518;2023-03-01T04:27:45;0.00;99.90
7002;DHT22;3541;53.230;10.518;2023-03-01T04:30:12;0.00;99.90
7002;DHT22;3541;53.230;10.518;2023-03-01T04:32:39;0.00;99.90
7002;DHT22;3541;53.230;10.518;2023-03-01T04:35:06;0.00;99.90
7002;DHT22;3541;53.230;10.518;2023-03-01T04:37:33;-0.10;99.90
7002;DHT22;3541;53.230;10.518;2023-03-01T04:40:00;-0.10;99.90
7002;DHT22;3541;53.230;10.518;2023-03-01T04:42:28;-0.10;99.90
7002;DHT22;3541;53.230;10.518;2023-03-01T04:44:55;0.00;99.90
7002;DHT22;3541;53.230;10.518;2023-03-01T04:47:21;-0.10;99.90
7002;DHT22;3541;53.230;10.518;2023-03-01T04:49:48;-0.10;99.90
7002;DHT22;3541;53.230;10.518;2023-03-01T04:52:14;-0.10;99.90
7002;DHT22;3541;53.230;10.518;2023-03-01T04:54:41;-0.20;99.90
7002;DHT22;3541;53.230;10.518;2023-03-01T04:57:08;-0.10;99.90
7002;DHT22;3541;53.230;10.518;2023-03-01T04:59:36;-0.10;99.90
7002;DHT22;3541;53.230;10.518;2023-03-01T05:02:02;-0.20;99.90
7002;DHT22;3541;53.230;10.518;2023-03-01T05:04:30;-0.30;99.90
7002;DHT22;3541;53.230;10.518;2023-03-01T05:06:57;-0.30;99.90
7002;DHT22;3541;53.230;10.518;2023-03-01T05:09:24;-0.30;99.90
7002;DHT22;3541;53.230;10.518;2023-03-01T05:11:50;-0.30;99.90
7002;DHT22;3541;53.230;10.518;2023-03-01T05:14:17;-0.30;99.90
7002;DHT22;3541;53.230;10.518;2023-03-01T05:16:45;-0.30;99.90
7002;DHT22;3541;53.230;10.518;2023-03-01T05:19:11;-0.30;99.90
7002;DHT22;3541;53.230;10.518;2023-03-01T05:21:40;-0.30;99.90
7002;DHT22;3541;53.230;10.518;2023-03-01T05:24:21;-0.30;99.90
7002;DHT22;3541;53.230;10.518;2023-03-01T05:26:48;-0.30;99.90
7002;DHT22;3541;53.230;10.518;2023-03-01T05:29:14;-0.30;99.90
7002;DHT22;3541;53.230;10.518;2023-03-01T05:31:41;-0.30;99.90
7002;DHT22;3541;53.230;10.518;2023-03-01T05:34:09;-0.30;99.90
7002;DHT22;3541;53.230;10.518;2023-03-01T05:36:38;-0.20;99.90
7002;DHT22;3541;53.230;10.518;2023-03-01T05:39:05;-0.30;99.90
7002;DHT22;3541;53.230;10.518;2023-03-01T05:41:32;-0.30;99.90
7002;DHT22;3541;53.230;10.518;2023-03-01T05:43:58;-0.40;99.90
7002;DHT22;3541;53.230;10.518;2023-03-01T05:46:25;-0.40;99.90
7002;DHT22;3541;53.230;10.518;2023-03-01T05:48:51;-0.40;99.90
7002;DHT22;3541;53.230;10.518;2023-03-01T05:51:19;-0.40;99.90
7002;DHT22;3541;53.230;10.518;2023-03-01T05:53:47;-0.40;99.90
7002;DHT22;3541;53.230;10.518;2023-03-01T05:56:14;-0.40;99.90
7002;DHT22;3541;53.230;10.518;2023-03-01T05:58:40;-0.40;99.90
7002;DHT22;3541;53.230;10.518;2023-03-01T06:01:11;-0.40;99.90
7002;DHT22;3541;53.230;10.518;2023-03-01T06:03:38;-0.40;99.90
7002;DHT22;3541;53.230;10.518;2023-03-01T06:06:05;-0.40;99.90
7002;DHT22;3541;53.230;10.518;2023-03-01T06:08:33;-0.40;99.90
7002;DHT22;3541;53.230;10.518;2023-03-01T06:10:59;-0.30;99.90
7002;DHT22;3541;53.230;10.518;2023-03-01T06:13:26;-0.40;99.90
7002;DHT22;3541;53.230;10.518;2023-03-01T06:15:53;-0.50;99.90
7002;DHT22;3541;53.230;10.518;2023-03-01T06:18:19;-0.50;99.90
7002;DHT22;3541;53.230;10.518;2023-03-01T06:20:52;-0.40;99.90
7002;DHT22;3541;53.230;10.518;2023-03-01T06:23:19;-0.50;99.90
7002;DHT22;3541;53.230;10.518;2023-03-01T06:25:47;-0.40;99.90
7002;DHT22;3541;53.230;10.518;2023-03-01T06:28:13;-0.30;99.90
7002;DHT22;3541;53.230;10.518;2023-03-01T06:30:40;-0.30;99.90
7002;DHT22;3541;53.230;10.518;2023-03-01T06:33:06;-0.20;99.90
7002;DHT22;3541;53.230;10.518;2023-03-01T06:35:33;-0.30;99.90
7002;DHT22;3541;53.230;10.518;2023-03-01T06:38:01;-0.20;99.90
7002;DHT22;3541;53.230;10.518;2023-03-01T06:40:28;-0.10;99.90
7002;DHT22;3541;53.230;10.518;2023-03-01T06:42:58;-0.10;99.90
7002;DHT22;3541;53.230;10.518;2023-03-01T06:45:24;-0.20;99.90
7002;DHT22;3541;53.230;10.518;2023-03-01T06:47:51;-0.10;99.90
7002;DHT22;3541;53.230;10.518;2023-03-01T06:50:18;0.00;99.90
7002;DHT22;3541;53.230;10.518;2023-03-01T06:52:45;0.00;99.90
7002;DHT22;3541;53.230;10.518;2023-03-01T06:55:12;0.10;99.90
7002;DHT22;3541;53.230;10.518;2023-03-01T06:57:39;0.20;99.90
7002;DHT22;3541;53.230;10.518;2023-03-01T07:00:08;0.20;99.90
7002;DHT22;3541;53.230;10.518;2023-03-01T07:02:35;0.30;99.90
7002;DHT22;3541;53.230;10.518;2023-03-01T07:05:01;0.30;99.90
7002;DHT22;3541;53.230;10.518;2023-03-01T07:07:28;0.30;99.90
7002;DHT22;3541;53.230;10.518;2023-03-01T07:09:54;0.20;99.90
7002;DHT22;3541;53.230;10.518;2023-03-01T07:12:21;0.20;99.90
7002;DHT22;3541;53.230;10.518;2023-03-01T07:14:47;0.30;99.90
7002;DHT22;3541;53.230;10.518;2023-03-01T07:17:15;0.40;99.90
7002;DHT22;3541;53.230;10.518;2023-03-01T07:19:42;0.50;99.90
7002;DHT22;3541;53.230;10.518;2023-03-01T07:22:10;0.60;99.90
7002;DHT22;3541;53.230;10.518;2023-03-01T07:24:36;0.60;99.90
7002;DHT22;3541;53.230;10.518;2023-03-01T07:27:03;0.70;99.90
7002;DHT22;3541;53.230;10.518;2023-03-01T07:29:29;0.80;99.90
7002;DHT22;3541;53.230;10.518;2023-03-01T07:31:56;0.80;99.90
7002;DHT22;3541;53.230;10.518;2023-03-01T07:34:24;0.90;99.90
7002;DHT22;3541;53.230;10.518;2023-03-01T07:36:51;0.90;99.90
7002;DHT22;3541;53.230;10.518;2023-03-01T07:39:18;1.00;99.90
7002;DHT22;3541;53.230;10.518;2023-03-01T07:41:44;1.00;99.90
7002;DHT22;3541;53.230;10.518;2023-03-01T07:44:11;1.10;99.90
7002;DHT22;3541;53.230;10.518;2023-03-01T07:46:37;1.20;99.90
7002;DHT22;3541;53.230;10.518;2023-03-01T07:49:04;1.20;99.90
7002;DHT22;3541;53.230;10.518;2023-03-01T07:51:32;1.20;99.90
7002;DHT22;3541;53.230;10.518;2023-03-01T07:53:58;1.20;99.90
7002;DHT22;3541;53.230;10.518;2023-03-01T07:56:25;1.20;99.90
7002;DHT22;3541;53.230;10.518;2023-03-01T07:58:51;1.30;99.90
7002;DHT22;3541;53.230;10.518;2023-03-01T08:01:20;1.40;99.90
7002;DHT22;3541;53.230;10.518;2023-03-01T08:03:47;1.40;99.90
7002;DHT22;3541;53.230;10.518;2023-03-01T08:06:15;1.40;99.90
7002;DHT22;3541;53.230;10.518;2023-03-01T08:08:44;1.50;99.90
7002;DHT22;3541;53.230;10.518;2023-03-01T08:11:11;1.50;99.90
7002;DHT22;3541;53.230;10.518;2023-03-01T08:13:38;1.60;99.90
7002;DHT22;3541;53.230;10.518;2023-03-01T08:16:07;1.60;99.90
7002;DHT22;3541;53.230;10.518;2023-03-01T08:18:34;1.60;99.90
7002;DHT22;3541;53.230;10.518;2023-03-01T08:21:02;1.60;99.90
7002;DHT22;3541;53.230;10.518;2023-03-01T08:23:29;1.60;99.90
7002;DHT22;3541;53.230;10.518;2023-03-01T08:26:03;1.70;99.90
7002;DHT22;3541;53.230;10.518;2023-03-01T08:28:30;1.60;99.90
7002;DHT22;3541;53.230;10.518;2023-03-01T08:30:56;1.80;99.90
7002;DHT22;3541;53.230;10.518;2023-03-01T08:33:23;1.90;99.90
7002;DHT22;3541;53.230;10.518;2023-03-01T08:35:49;2.00;99.90
7002;DHT22;3541;53.230;10.518;2023-03-01T08:38:16;2.00;99.90
7002;DHT22;3541;53.230;10.518;2023-03-01T08:40:42;2.10;99.90
7002;DHT22;3541;53.230;10.518;2023-03-01T08:43:10;2.10;99.90
7002;DHT22;3541;53.230;10.518;2023-03-01T08:45:37;2.20;99.90
7002;DHT22;3541;53.230;10.518;2023-03-01T08:48:03;2.20;99.90
7002;DHT22;3541;53.230;10.518;2023-03-01T08:50:30;2.20;99.90
7002;DHT22;3541;53.230;10.518;2023-03-01T08:52:56;2.30;99.90
7002;DHT22;3541;53.230;10.518;2023-03-01T08:55:23;2.30;99.90
7002;DHT22;3541;53.230;10.518;2023-03-01T08:57:49;2.40;99.90
7002;DHT22;3541;53.230;10.518;2023-03-01T09:00:18;2.50;99.90
7002;DHT22;3541;53.230;10.518;2023-03-01T09:02:45;2.50;99.90
7002;DHT22;3541;53.230;10.518;2023-03-01T09:05:11;2.70;99.90
7002;DHT22;3541;53.230;10.518;2023-03-01T09:07:38;2.70;99.90
7002;DHT22;3541;53.230;10.518;2023-03-01T09:10:05;2.80;99.90
7002;DHT22;3541;53.230;10.518;2023-03-01T09:12:32;2.90;99.90
7002;DHT22;3541;53.230;10.518;2023-03-01T09:14:59;2.90;99.90
7002;DHT22;3541;53.230;10.518;2023-03-01T09:17:27;3.00;99.90
7002;DHT22;3541;53.230;10.518;2023-03-01T09:19:53;3.10;99.90
7002;DHT22;3541;53.230;10.518;2023-03-01T09:22:20;3.20;99.90
7002;DHT22;3541;53.230;10.518;2023-03-01T09:24:47;3.20;99.90
7002;DHT22;3541;53.230;10.518;2023-03-01T09:27:13;3.30;99.90
7002;DHT22;3541;53.230;10.518;2023-03-01T09:29:43;3.30;99.90
7002;DHT22;3541;53.230;10.518;2023-03-01T09:32:10;3.40;99.90
7002;DHT22;3541;53.230;10.518;2023-03-01T09:34:38;3.50;99.90
7002;DHT22;3541;53.230;10.518;2023-03-01T09:37:18;3.60;99.90
7002;DHT22;3541;53.230;10.518;2023-03-01T09:39:45;3.70;99.90
7002;DHT22;3541;53.230;10.518;2023-03-01T09:42:12;3.80;99.90
7002;DHT22;3541;53.230;10.518;2023-03-01T09:44:46;3.90;99.90
7002;DHT22;3541;53.230;10.518;2023-03-01T09:47:18;3.90;99.90
7002;DHT22;3541;53.230;10.518;2023-03-01T09:49:55;4.00;99.90
7002;DHT22;3541;53.230;10.518;2023-03-01T09:52:29;4.10;99.90
7002;DHT22;3541;53.230;10.518;2023-03-01T09:54:59;4.10;99.90
7002;DHT22;3541;53.230;10.518;2023-03-01T09:57:30;4.20;99.90
7002;DHT22;3541;53.230;10.518;2023-03-01T10:00:16;4.30;99.90
7002;DHT22;3541;53.230;10.518;2023-03-01T10:02:48;4.30;99.90
7002;DHT22;3541;53.230;10.518;2023-03-01T10:05:36;4.50;99.90
7002;DHT22;3541;53.230;10.518;2023-03-01T10:08:26;4.60;99.90
7002;DHT22;3541;53.230;10.518;2023-03-01T10:10:54;4.70;99.90
7002;DHT22;3541;53.230;10.518;2023-03-01T10:13:24;4.80;99.90
7002;DHT22;3541;53.230;10.518;2023-03-01T10:15:55;4.90;99.90
7002;DHT22;3541;53.230;10.518;2023-03-01T10:18:25;5.00;99.90
7002;DHT22;3541;53.230;10.518;2023-03-01T10:20:57;5.20;99.90
7002;DHT22;3541;53.230;10.518;2023-03-01T10:23:25;5.20;99.90
7002;DHT22;3541;53.230;10.518;2023-03-01T10:26:06;5.20;99.90
7002;DHT22;3541;53.230;10.518;2023-03-01T10:28:44;5.30;99.90
7002;DHT22;3541;53.230;10.518;2023-03-01T10:31:15;5.50;99.90
7002;DHT22;3541;53.230;10.518;2023-03-01T10:33:43;5.50;99.90
7002;DHT22;3541;53.230;10.518;2023-03-01T10:36:11;5.60;99.90
7002;DHT22;3541;53.230;10.518;2023-03-01T10:38:49;5.60;99.90
7002;DHT22;3541;53.230;10.518;2023-03-01T10:41:18;5.60;99.90
7002;DHT22;3541;53.230;10.518;2023-03-01T10:43:46;5.70;99.90
7002;DHT22;3541;53.230;10.518;2023-03-01T10:46:27;5.70;99.90
7002;DHT22;3541;53.230;10.518;2023-03-01T10:49:12;5.80;99.90
7002;DHT22;3541;53.230;10.518;2023-03-01T10:51:43;5.90;99.90
7002;DHT22;3541;53.230;10.518;2023-03-01T10:54:17;6.00;99.90
7002;DHT22;3541;53.230;10.518;2023-03-01T10:56:49;6.20;99.90
7002;DHT22;3541;53.230;10.518;2023-03-01T10:59:26;6.30;99.90
7002;DHT22;3541;53.230;10.518;2023-03-01T11:02:14;6.50;99.90
7002;DHT22;3541;53.230;10.518;2023-03-01T11:04:56;6.50;99.90
7002;DHT22;3541;53.230;10.518;2023-03-01T11:07:24;6.60;99.90
7002;DHT22;3541;53.230;10.518;2023-03-01T11:09:50;6.70;99.90
7002;DHT22;3541;53.230;10.518;2023-03-01T11:12:17;6.80;99.90
7002;DHT22;3541;53.230;10.518;2023-03-01T11:14:47;6.80;99.90
7002;DHT22;3541;53.230;10.518;2023-03-01T11:17:20;6.90;99.90
7002;DHT22;3541;53.230;10.518;2023-03-01T11:20:01;6.90;99.90
7002;DHT22;3541;53.230;10.518;2023-03-01T11:22:31;7.00;99.90
7002;DHT22;3541;53.230;10.518;2023-03-01T11:25:00;7.10;99.90
7002;DHT22;3541;53.230;10.518;2023-03-01T11:27:29;7.10;99.90
7002;DHT22;3541;53.230;10.518;2023-03-01T11:30:00;7.20;99.90
7002;DHT22;3541;53.230;10.518;2023-03-01T11:32:34;7.30;99.90
7002;DHT22;3541;53.230;10.518;2023-03-01T11:35:07;7.30;99.90
7002;DHT22;3541;53.230;10.518;2023-03-01T11:37:41;7.40;99.90
7002;DHT22;3541;53.230;10.518;2023-03-01T11:40:16;7.50;99.90
7002;DHT22;3541;53.230;10.518;2023-03-01T11:42:53;7.60;99.90
7002;DHT22;3541;53.230;10.518;2023-03-01T11:45:23;7.60;99.90
7002;DHT22;3541;53.230;10.518;2023-03-01T11:47:59;7.70;99.90
7002;DHT22;3541;53.230;10.518;2023-03-01T11:50:38;7.70;99.90
7002;DHT22;3541;53.230;10.518;2023-03-01T11:53:23;7.70;99.90
7002;DHT22;3541;53.230;10.518;2023-03-01T11:56:05;7.70;99.90
7002;DHT22;3541;53.230;10.518;2023-03-01T11:58:47;7.80;99.90
7002;DHT22;3541;53.230;10.518;2023-03-01T12:04:30;8.00;99.90
7002;DHT22;3541;53.230;10.518;2023-03-01T12:07:00;8.10;99.90
7002;DHT22;3541;53.230;10.518;2023-03-01T12:09:38;8.30;99.90
7002;DHT22;3541;53.230;10.518;2023-03-01T12:12:23;8.30;99.90
7002;DHT22;3541;53.230;10.518;2023-03-01T12:15:22;8.40;99.90
7002;DHT22;3541;53.230;10.518;2023-03-01T12:21:09;8.50;99.90
7002;DHT22;3541;53.230;10.518;2023-03-01T12:24:04;8.50;99.90
7002;DHT22;3541;53.230;10.518;2023-03-01T12:26:43;8.60;99.90
7002;DHT22;3541;53.230;10.518;2023-03-01T12:29:21;8.70;99.90
7002;DHT22;3541;53.230;10.518;2023-03-01T12:32:10;8.80;99.90
7002;DHT22;3541;53.230;10.518;2023-03-01T12:37:42;9.10;99.90
7002;DHT22;3541;53.230;10.518;2023-03-01T12:40:24;9.20;99.90
7002;DHT22;3541;53.230;10.518;2023-03-01T12:43:04;9.10;99.90
7002;DHT22;3541;53.230;10.518;2023-03-01T12:45:54;9.20;99.90
7002;DHT22;3541;53.230;10.518;2023-03-01T12:48:34;9.30;99.90
7002;DHT22;3541;53.230;10.518;2023-03-01T12:51:06;9.40;99.90
7002;DHT22;3541;53.230;10.518;2023-03-01T12:53:36;9.50;99.90
7002;DHT22;3541;53.230;10.518;2023-03-01T12:56:06;9.60;99.90
7002;DHT22;3541;53.230;10.518;2023-03-01T12:58:41;9.60;99.90
7002;DHT22;3541;53.230;10.518;2023-03-01T13:01:20;9.70;99.90
7002;DHT22;3541;53.230;10.518;2023-03-01T13:04:03;9.80;99.90
7002;DHT22;3541;53.230;10.518;2023-03-01T13:06:43;9.80;99.90
7002;DHT22;3541;53.230;10.518;2023-03-01T13:09:18;9.80;99.90
7002;DHT22;3541;53.230;10.518;2023-03-01T13:11:48;9.90;99.90
7002;DHT22;3541;53.230;10.518;2023-03-01T13:14:37;10.00;99.90
7002;DHT22;3541;53.230;10.518;2023-03-01T13:17:30;9.70;99.90
7002;DHT22;3541;53.230;10.518;2023-03-01T13:19:58;9.60;99.90
7002;DHT22;3541;53.230;10.518;2023-03-01T13:22:27;9.70;99.90
7002;DHT22;3541;53.230;10.518;2023-03-01T13:25:02;9.80;99.90
7002;DHT22;3541;53.230;10.518;2023-03-01T13:27:29;9.70;99.90
7002;DHT22;3541;53.230;10.518;2023-03-01T13:29:58;9.80;99.90
7002;DHT22;3541;53.230;10.518;2023-03-01T13:32:29;9.90;99.90
7002;DHT22;3541;53.230;10.518;2023-03-01T13:35:01;10.00;99.90
7002;DHT22;3541;53.230;10.518;2023-03-01T13:37:31;9.90;99.90
7002;DHT22;3541;53.230;10.518;2023-03-01T13:40:01;10.00;99.90
7002;DHT22;3541;53.230;10.518;2023-03-01T13:42:33;10.10;99.90
7002;DHT22;3541;53.230;10.518;2023-03-01T13:45:05;10.10;99.90
7002;DHT22;3541;53.230;10.518;2023-03-01T13:47:38;10.20;99.90
7002;DHT22;3541;53.230;10.518;2023-03-01T13:50:06;10.10;99.90
7002;DHT22;3541;53.230;10.518;2023-03-01T13:52:38;10.20;99.90
7002;DHT22;3541;53.230;10.518;2023-03-01T13:55:15;10.20;99.90
7002;DHT22;3541;53.230;10.518;2023-03-01T13:57:45;10.30;99.90
7002;DHT22;3541;53.230;10.518;2023-03-01T14:00:28;10.40;99.90
7002;DHT22;3541;53.230;10.518;2023-03-01T14:03:08;10.50;99.90
7002;DHT22;3541;53.230;10.518;2023-03-01T14:05:35;10.40;99.90
7002;DHT22;3541;53.230;10.518;2023-03-01T14:08:02;10.30;99.90
7002;DHT22;3541;53.230;10.518;2023-03-01T14:10:35;10.20;99.90
7002;DHT22;3541;53.230;10.518;2023-03-01T14:13:10;10.10;99.90
7002;DHT22;3541;53.230;10.518;2023-03-01T14:15:48;10.10;99.90
7002;DHT22;3541;53.230;10.518;2023-03-01T14:18:19;10.10;99.90
7002;DHT22;3541;53.230;10.518;2023-03-01T14:20:48;10.10;99.90
7002;DHT22;3541;53.230;10.518;2023-03-01T14:23:19;10.20;99.90
7002;DHT22;3541;53.230;10.518;2023-03-01T14:25:48;10.30;99.90
7002;DHT22;3541;53.230;10.518;2023-03-01T14:28:16;10.20;99.90
7002;DHT22;3541;53.230;10.518;2023-03-01T14:30:47;10.30;99.90
7002;DHT22;3541;53.230;10.518;2023-03-01T14:33:23;10.40;99.90
7002;DHT22;3541;53.230;10.518;2023-03-01T14:35:56;10.40;99.90
7002;DHT22;3541;53.230;10.518;2023-03-01T14:38:29;10.40;99.90
7002;DHT22;3541;53.230;10.518;2023-03-01T14:40:58;10.50;99.90
7002;DHT22;3541;53.230;10.518;2023-03-01T14:43:25;10.60;99.90
7002;DHT22;3541;53.230;10.518;2023-03-01T14:45:53;10.70;99.90
7002;DHT22;3541;53.230;10.518;2023-03-01T14:48:20;10.80;99.90
7002;DHT22;3541;53.230;10.518;2023-03-01T14:50:47;10.90;99.90
7002;DHT22;3541;53.230;10.518;2023-03-01T14:53:17;11.00;99.90
7002;DHT22;3541;53.230;10.518;2023-03-01T14:55:46;11.10;99.90
7002;DHT22;3541;53.230;10.518;2023-03-01T14:58:15;11.10;99.90
7002;DHT22;3541;53.230;10.518;2023-03-01T15:00:48;11.10;99.90
7002;DHT22;3541;53.230;10.518;2023-03-01T15:03:25;11.20;99.90
7002;DHT22;3541;53.230;10.518;2023-03-01T15:05:52;11.30;99.90
7002;DHT22;3541;53.230;10.518;2023-03-01T15:08:22;11.30;99.90
7002;DHT22;3541;53.230;10.518;2023-03-01T15:10:57;11.40;99.90
7002;DHT22;3541;53.230;10.518;2023-03-01T15:13:28;11.30;99.90
7002;DHT22;3541;53.230;10.518;2023-03-01T15:16:02;11.20;99.90
7002;DHT22;3541;53.230;10.518;2023-03-01T15:18:31;11.30;99.90
7002;DHT22;3541;53.230;10.518;2023-03-01T15:21:06;11.40;99.90
7002;DHT22;3541;53.230;10.518;2023-03-01T15:23:34;11.40;99.90
7002;DHT22;3541;53.230;10.518;2023-03-01T15:26:02;11.40;99.90
7002;DHT22;3541;53.230;10.518;2023-03-01T15:28:31;11.60;99.90
7002;DHT22;3541;53.230;10.518;2023-03-01T15:31:00;11.70;99.90
7002;DHT22;3541;53.230;10.518;2023-03-01T15:33:38;11.80;99.90
7002;DHT22;3541;53.230;10.518;2023-03-01T15:36:35;11.80;99.90
7002;DHT22;3541;53.230;10.518;2023-03-01T15:39:03;11.80;99.90
7002;DHT22;3541;53.230;10.518;2023-03-01T15:41:37;11.80;99.90
7002;DHT22;3541;53.230;10.518;2023-03-01T15:44:15;11.90;99.90
7002;DHT22;3541;53.230;10.518;2023-03-01T15:46:46;12.00;99.90
7002;DHT22;3541;53.230;10.518;2023-03-01T15:49:34;12.10;99.90
7002;DHT22;3541;53.230;10.518;2023-03-01T15:52:02;12.10;99.90
7002;DHT22;3541;53.230;10.518;2023-03-01T15:54:29;12.10;99.90
7002;DHT22;3541;53.230;10.518;2023-03-01T15:56:56;12.10;99.90
7002;DHT22;3541;53.230;10.518;2023-03-01T15:59:23;12.20;99.90
7002;DHT22;3541;53.230;10.518;2023-03-01T16:01:49;12.30;99.90
7002;DHT22;3541;53.230;10.518;2023-03-01T16:04:18;12.30;99.90
7002;DHT22;3541;53.230;10.518;2023-03-01T16:06:50;12.40;99.90
7002;DHT22;3541;53.230;10.518;2023-03-01T16:09:20;12.30;99.90
7002;DHT22;3541;53.230;10.518;2023-03-01T16:11:46;12.40;99.90
7002;DHT22;3541;53.230;10.518;2023-03-01T16:14:13;12.50;99.90
7002;DHT22;3541;53.230;10.518;2023-03-01T16:16:40;12.60;99.90
7002;DHT22;3541;53.230;10.518;2023-03-01T16:19:06;12.70;99.90
7002;DHT22;3541;53.230;10.518;2023-03-01T16:21:33;12.60;99.90
7002;DHT22;3541;53.230;10.518;2023-03-01T16:24:01;12.60;99.90